This is the latest recevied weather packets stored in our database for station/object F8COD-13. If no packets are shown the sender has not sent any weather packets the latest 10 day(s).
| Time | Temp. | Humidity | Pressure | Rain* | Wind** | Luminosity | Snow |
|---|---|---|---|---|---|---|---|
| 1777843818 | 14.44° C | 91% | 1012 hPa | 0 mm | - | - | - |
| 1777839617 | 15.56° C | 90% | 1011.5 hPa | 0 mm | - | - | - |
| 1777835417 | 16.67° C | 85% | 1011 hPa | 0 mm | - | - | - |
| 1777834217 | 17.22° C | 83% | 1010.8 hPa | 0 mm | - | - | - |
| 1777833617 | 17.22° C | 83% | 1010.7 hPa | 0 mm | - | - | - |
| 1777833017 | 17.78° C | 82% | 1010.8 hPa | 0 mm | - | - | - |
| 1777825217 | 20° C | 72% | 1010.3 hPa | 0 mm | - | - | - |
| 1777822817 | 21.11° C | 68% | 1010.6 hPa | 0 mm | - | - | - |
| 1777821617 | 21.11° C | 70% | 1010.7 hPa | 0 mm | - | - | - |
| 1777820417 | 20° C | 74% | 1010.8 hPa | 0 mm | - | - | - |
| 1777816217 | 18.89° C | 84% | 1011.4 hPa | 0 mm | - | - | - |
| 1777815617 | 18.89° C | 85% | 1011.5 hPa | 0 mm | - | - | - |
| 1777814417 | 19.44° C | 75% | 1011.4 hPa | 0 mm | - | - | - |
| 1777812617 | 20.56° C | 74% | 1011.3 hPa | 0 mm | - | - | - |
| 1777811416 | 20° C | 76% | 1011.4 hPa | 0 mm | - | - | - |
| 1777810217 | 19.44° C | 79% | 1011.5 hPa | 0 mm | - | - | - |
| 1777806037 | 16.67° C | 90% | 1012 hPa | 0 mm | - | - | - |
| 1777801216 | 15.56° C | 94% | 1012.4 hPa | 0 mm | - | - | - |
| 1777797616 | 15° C | 94% | 1012.4 hPa | 0 mm | - | - | - |
| 1777791018 | 14.44° C | 93% | 1012.2 hPa | 0 mm | - | - | - |
| 1777788018 | 14.44° C | 93% | 1012.2 hPa | 0 mm | - | - | - |
| 1777786838 | 13.89° C | 92% | 1012.2 hPa | 0 mm | - | - | - |
| 1777780821 | 15.56° C | 88% | 1012.2 hPa | 0 mm | - | - | - |
| 1777770018 | 16.67° C | 82% | 1012.7 hPa | 0 mm | - | - | - |
| 1777765217 | 16.67° C | 79% | 1013.3 hPa | 0 mm | - | - | - |
* Rain latest hour (hover to see other rain measurements)
** Current wind speed in m/s (hover to see current wind gust speed)